sensor_id;sensor_type;location;lat;lon;timestamp;P1;durP1;ratioP1;P2;durP2;ratioP2
4597;SDS011;62772;48.646;8.906;2022-08-25T00:00:24;6.57;;;4.00;;
4597;SDS011;62772;48.646;8.906;2022-08-25T00:05:27;6.33;;;4.20;;
4597;SDS011;62772;48.646;8.906;2022-08-25T00:10:29;6.50;;;4.10;;
4597;SDS011;62772;48.646;8.906;2022-08-25T00:15:30;6.57;;;4.30;;
4597;SDS011;62772;48.646;8.906;2022-08-25T00:20:34;5.13;;;4.07;;
4597;SDS011;62772;48.646;8.906;2022-08-25T00:25:35;5.20;;;3.60;;
4597;SDS011;62772;48.646;8.906;2022-08-25T00:30:35;7.40;;;4.03;;
4597;SDS011;62772;48.646;8.906;2022-08-25T00:35:40;7.40;;;4.30;;
4597;SDS011;62772;48.646;8.906;2022-08-25T00:40:41;5.00;;;4.00;;
4597;SDS011;62772;48.646;8.906;2022-08-25T00:45:42;6.27;;;3.77;;
4597;SDS011;62772;48.646;8.906;2022-08-25T00:50:46;5.60;;;4.03;;
4597;SDS011;62772;48.646;8.906;2022-08-25T00:55:46;5.23;;;3.60;;
4597;SDS011;62772;48.646;8.906;2022-08-25T01:00:48;6.53;;;3.60;;
4597;SDS011;62772;48.646;8.906;2022-08-25T01:05:54;6.30;;;3.80;;
4597;SDS011;62772;48.646;8.906;2022-08-25T01:10:55;5.13;;;3.60;;
4597;SDS011;62772;48.646;8.906;2022-08-25T01:15:58;6.27;;;3.77;;
4597;SDS011;62772;48.646;8.906;2022-08-25T01:21:02;5.20;;;3.60;;
4597;SDS011;62772;48.646;8.906;2022-08-25T01:26:04;4.60;;;3.53;;
4597;SDS011;62772;48.646;8.906;2022-08-25T01:31:08;6.10;;;3.83;;
4597;SDS011;62772;48.646;8.906;2022-08-25T01:36:16;6.70;;;4.17;;
4597;SDS011;62772;48.646;8.906;2022-08-25T01:41:18;6.23;;;4.17;;
4597;SDS011;62772;48.646;8.906;2022-08-25T01:46:25;7.10;;;3.60;;
4597;SDS011;62772;48.646;8.906;2022-08-25T01:51:33;6.47;;;4.20;;
4597;SDS011;62772;48.646;8.906;2022-08-25T01:56:37;6.90;;;4.67;;
4597;SDS011;62772;48.646;8.906;2022-08-25T02:01:38;7.63;;;4.20;;
4597;SDS011;62772;48.646;8.906;2022-08-25T02:06:41;10.70;;;4.47;;
4597;SDS011;62772;48.646;8.906;2022-08-25T02:11:44;6.90;;;4.80;;
4597;SDS011;62772;48.646;8.906;2022-08-25T02:16:47;8.37;;;4.70;;
4597;SDS011;62772;48.646;8.906;2022-08-25T02:21:52;10.43;;;4.60;;
4597;SDS011;62772;48.646;8.906;2022-08-25T02:26:53;6.90;;;4.27;;
4597;SDS011;62772;48.646;8.906;2022-08-25T02:31:54;6.33;;;4.37;;
4597;SDS011;62772;48.646;8.906;2022-08-25T02:36:57;8.00;;;4.27;;
4597;SDS011;62772;48.646;8.906;2022-08-25T02:41:58;5.27;;;4.00;;
4597;SDS011;62772;48.646;8.906;2022-08-25T02:46:59;6.23;;;4.40;;
4597;SDS011;62772;48.646;8.906;2022-08-25T02:52:02;5.73;;;4.10;;
4597;SDS011;62772;48.646;8.906;2022-08-25T02:57:03;5.90;;;4.00;;
4597;SDS011;62772;48.646;8.906;2022-08-25T03:02:04;6.47;;;4.30;;
4597;SDS011;62772;48.646;8.906;2022-08-25T03:07:08;6.27;;;4.00;;
4597;SDS011;62772;48.646;8.906;2022-08-25T03:12:09;5.17;;;3.50;;
4597;SDS011;62772;48.646;8.906;2022-08-25T03:17:11;5.57;;;3.80;;
4597;SDS011;62772;48.646;8.906;2022-08-25T03:22:14;5.63;;;3.97;;
4597;SDS011;62772;48.646;8.906;2022-08-25T03:27:15;6.00;;;4.23;;
4597;SDS011;62772;48.646;8.906;2022-08-25T03:32:15;6.60;;;3.70;;
4597;SDS011;62772;48.646;8.906;2022-08-25T03:37:19;5.80;;;3.87;;
4597;SDS011;62772;48.646;8.906;2022-08-25T03:42:19;6.10;;;4.30;;
4597;SDS011;62772;48.646;8.906;2022-08-25T03:47:20;5.87;;;4.40;;
4597;SDS011;62772;48.646;8.906;2022-08-25T03:52:26;8.40;;;4.57;;
4597;SDS011;62772;48.646;8.906;2022-08-25T03:57:27;6.03;;;4.03;;
4597;SDS011;62772;48.646;8.906;2022-08-25T04:02:27;6.60;;;4.30;;
4597;SDS011;62772;48.646;8.906;2022-08-25T04:07:31;5.20;;;4.03;;
4597;SDS011;62772;48.646;8.906;2022-08-25T04:12:32;9.00;;;3.90;;
4597;SDS011;62772;48.646;8.906;2022-08-25T04:17:35;5.20;;;3.87;;
4597;SDS011;62772;48.646;8.906;2022-08-25T04:22:40;5.50;;;3.97;;
4597;SDS011;62772;48.646;8.906;2022-08-25T04:27:41;5.30;;;3.60;;
4597;SDS011;62772;48.646;8.906;2022-08-25T04:32:41;6.27;;;4.20;;
4597;SDS011;62772;48.646;8.906;2022-08-25T04:37:45;5.70;;;4.27;;
4597;SDS011;62772;48.646;8.906;2022-08-25T04:42:47;5.00;;;3.73;;
4597;SDS011;62772;48.646;8.906;2022-08-25T04:47:48;5.37;;;3.80;;
4597;SDS011;62772;48.646;8.906;2022-08-25T04:52:51;5.63;;;4.30;;
4597;SDS011;62772;48.646;8.906;2022-08-25T04:57:52;4.97;;;3.70;;
4597;SDS011;62772;48.646;8.906;2022-08-25T05:02:53;4.90;;;3.30;;
4597;SDS011;62772;48.646;8.906;2022-08-25T05:07:57;6.23;;;4.13;;
4597;SDS011;62772;48.646;8.906;2022-08-25T05:12:58;6.90;;;4.67;;
4597;SDS011;62772;48.646;8.906;2022-08-25T05:17:59;9.20;;;4.37;;
4597;SDS011;62772;48.646;8.906;2022-08-25T05:23:03;5.63;;;3.93;;
4597;SDS011;62772;48.646;8.906;2022-08-25T05:28:04;6.00;;;4.40;;
4597;SDS011;62772;48.646;8.906;2022-08-25T05:33:05;7.20;;;4.67;;
4597;SDS011;62772;48.646;8.906;2022-08-25T05:38:08;8.73;;;5.10;;
4597;SDS011;62772;48.646;8.906;2022-08-25T05:43:09;8.77;;;5.30;;
4597;SDS011;62772;48.646;8.906;2022-08-25T05:48:11;7.37;;;5.07;;
4597;SDS011;62772;48.646;8.906;2022-08-25T05:53:14;7.20;;;5.00;;
4597;SDS011;62772;48.646;8.906;2022-08-25T05:58:15;9.27;;;5.07;;
4597;SDS011;62772;48.646;8.906;2022-08-25T06:03:16;6.00;;;4.37;;
4597;SDS011;62772;48.646;8.906;2022-08-25T06:08:19;9.30;;;5.53;;
4597;SDS011;62772;48.646;8.906;2022-08-25T06:13:20;9.53;;;5.70;;
4597;SDS011;62772;48.646;8.906;2022-08-25T06:18:21;10.30;;;6.47;;
4597;SDS011;62772;48.646;8.906;2022-08-25T06:23:24;7.77;;;5.70;;
4597;SDS011;62772;48.646;8.906;2022-08-25T06:28:25;8.77;;;6.03;;
4597;SDS011;62772;48.646;8.906;2022-08-25T06:33:25;12.57;;;6.90;;
4597;SDS011;62772;48.646;8.906;2022-08-25T06:38:29;11.80;;;7.50;;
4597;SDS011;62772;48.646;8.906;2022-08-25T06:43:31;11.30;;;7.20;;
4597;SDS011;62772;48.646;8.906;2022-08-25T06:48:33;12.70;;;6.60;;
4597;SDS011;62772;48.646;8.906;2022-08-25T06:53:36;9.20;;;6.63;;
4597;SDS011;62772;48.646;8.906;2022-08-25T06:58:37;12.97;;;7.90;;
4597;SDS011;62772;48.646;8.906;2022-08-25T07:03:38;16.63;;;6.70;;
4597;SDS011;62772;48.646;8.906;2022-08-25T07:08:42;15.10;;;7.10;;
4597;SDS011;62772;48.646;8.906;2022-08-25T07:13:43;12.37;;;6.70;;
4597;SDS011;62772;48.646;8.906;2022-08-25T07:18:44;10.27;;;6.47;;
4597;SDS011;62772;48.646;8.906;2022-08-25T07:23:49;10.80;;;6.90;;
4597;SDS011;62772;48.646;8.906;2022-08-25T07:28:51;10.63;;;7.13;;
4597;SDS011;62772;48.646;8.906;2022-08-25T07:33:51;13.60;;;6.80;;
4597;SDS011;62772;48.646;8.906;2022-08-25T07:39:14;10.70;;;6.50;;
4597;SDS011;62772;48.646;8.906;2022-08-25T07:44:15;14.90;;;6.60;;
4597;SDS011;62772;48.646;8.906;2022-08-25T07:49:16;12.70;;;7.10;;
4597;SDS011;62772;48.646;8.906;2022-08-25T07:54:20;12.07;;;7.07;;
4597;SDS011;62772;48.646;8.906;2022-08-25T07:59:21;9.10;;;6.70;;
4597;SDS011;62772;48.646;8.906;2022-08-25T08:04:22;14.90;;;6.80;;
4597;SDS011;62772;48.646;8.906;2022-08-25T08:09:25;8.97;;;6.27;;
4597;SDS011;62772;48.646;8.906;2022-08-25T08:14:26;12.10;;;6.60;;
4597;SDS011;62772;48.646;8.906;2022-08-25T08:19:27;9.83;;;5.87;;
4597;SDS011;62772;48.646;8.906;2022-08-25T08:24:31;9.63;;;6.30;;
4597;SDS011;62772;48.646;8.906;2022-08-25T08:29:38;14.93;;;6.13;;
4597;SDS011;62772;48.646;8.906;2022-08-25T08:34:40;10.70;;;6.13;;
4597;SDS011;62772;48.646;8.906;2022-08-25T08:39:43;8.70;;;5.73;;
4597;SDS011;62772;48.646;8.906;2022-08-25T08:44:48;11.83;;;5.93;;
4597;SDS011;62772;48.646;8.906;2022-08-25T08:50:01;14.17;;;6.20;;
4597;SDS011;62772;48.646;8.906;2022-08-25T08:55:08;9.67;;;5.77;;
4597;SDS011;62772;48.646;8.906;2022-08-25T09:00:14;9.43;;;6.50;;
4597;SDS011;62772;48.646;8.906;2022-08-25T09:05:15;11.53;;;6.17;;
4597;SDS011;62772;48.646;8.906;2022-08-25T09:10:21;9.00;;;5.50;;
4597;SDS011;62772;48.646;8.906;2022-08-25T09:15:27;9.40;;;5.80;;
4597;SDS011;62772;48.646;8.906;2022-08-25T09:20:58;9.20;;;5.53;;
4597;SDS011;62772;48.646;8.906;2022-08-25T09:26:16;8.67;;;5.20;;
4597;SDS011;62772;48.646;8.906;2022-08-25T09:31:26;10.10;;;5.97;;
4597;SDS011;62772;48.646;8.906;2022-08-25T09:36:30;9.20;;;5.33;;
4597;SDS011;62772;48.646;8.906;2022-08-25T09:41:43;7.57;;;5.30;;
4597;SDS011;62772;48.646;8.906;2022-08-25T09:46:56;8.67;;;5.67;;
4597;SDS011;62772;48.646;8.906;2022-08-25T09:57:29;7.00;;;5.17;;
4597;SDS011;62772;48.646;8.906;2022-08-25T10:02:32;6.83;;;4.50;;
4597;SDS011;62772;48.646;8.906;2022-08-25T10:07:33;7.60;;;4.83;;
4597;SDS011;62772;48.646;8.906;2022-08-25T10:12:41;15.87;;;4.80;;
4597;SDS011;62772;48.646;8.906;2022-08-25T10:17:44;7.03;;;4.63;;
4597;SDS011;62772;48.646;8.906;2022-08-25T10:22:45;6.63;;;4.10;;
4597;SDS011;62772;48.646;8.906;2022-08-25T10:27:51;6.20;;;3.90;;
4597;SDS011;62772;48.646;8.906;2022-08-25T10:33:08;6.43;;;4.43;;
4597;SDS011;62772;48.646;8.906;2022-08-25T10:38:25;6.67;;;4.40;;
4597;SDS011;62772;48.646;8.906;2022-08-25T10:43:38;7.03;;;4.20;;
4597;SDS011;62772;48.646;8.906;2022-08-25T10:48:48;8.30;;;4.67;;
4597;SDS011;62772;48.646;8.906;2022-08-25T10:53:54;7.30;;;4.90;;
4597;SDS011;62772;48.646;8.906;2022-08-25T10:59:05;9.85;;;4.80;;
4597;SDS011;62772;48.646;8.906;2022-08-25T11:04:17;7.53;;;4.07;;
4597;SDS011;62772;48.646;8.906;2022-08-25T11:09:27;7.33;;;4.03;;
4597;SDS011;62772;48.646;8.906;2022-08-25T11:14:32;4.22;;;3.53;;
4597;SDS011;62772;48.646;8.906;2022-08-25T11:19:37;5.65;;;4.18;;
4597;SDS011;62772;48.646;8.906;2022-08-25T11:24:46;7.07;;;4.20;;
4597;SDS011;62772;48.646;8.906;2022-08-25T11:30:00;6.40;;;4.20;;
4597;SDS011;62772;48.646;8.906;2022-08-25T11:35:07;5.53;;;3.63;;
4597;SDS011;62772;48.646;8.906;2022-08-25T11:40:16;9.75;;;4.28;;
4597;SDS011;62772;48.646;8.906;2022-08-25T11:51:01;8.15;;;3.67;;
4597;SDS011;62772;48.646;8.906;2022-08-25T11:56:04;5.13;;;3.75;;
4597;SDS011;62772;48.646;8.906;2022-08-25T12:01:11;4.70;;;3.40;;
4597;SDS011;62772;48.646;8.906;2022-08-25T12:17:39;4.68;;;3.30;;
4597;SDS011;62772;48.646;8.906;2022-08-25T12:22:44;7.68;;;3.53;;
4597;SDS011;62772;48.646;8.906;2022-08-25T12:27:57;4.15;;;2.80;;
4597;SDS011;62772;48.646;8.906;2022-08-25T12:33:09;4.68;;;3.33;;
4597;SDS011;62772;48.646;8.906;2022-08-25T12:38:16;4.65;;;3.33;;
4597;SDS011;62772;48.646;8.906;2022-08-25T12:43:27;3.88;;;2.85;;
4597;SDS011;62772;48.646;8.906;2022-08-25T12:48:52;6.03;;;3.28;;
4597;SDS011;62772;48.646;8.906;2022-08-25T12:53:57;5.03;;;3.60;;
4597;SDS011;62772;48.646;8.906;2022-08-25T12:59:12;5.43;;;3.13;;
4597;SDS011;62772;48.646;8.906;2022-08-25T13:04:28;5.18;;;3.55;;
4597;SDS011;62772;48.646;8.906;2022-08-25T13:09:54;5.63;;;3.40;;
4597;SDS011;62772;48.646;8.906;2022-08-25T13:15:10;5.45;;;3.33;;
4597;SDS011;62772;48.646;8.906;2022-08-25T13:20:16;4.35;;;3.00;;
4597;SDS011;62772;48.646;8.906;2022-08-25T13:25:20;4.03;;;2.80;;
4597;SDS011;62772;48.646;8.906;2022-08-25T13:30:23;3.78;;;3.00;;
4597;SDS011;62772;48.646;8.906;2022-08-25T13:35:29;4.75;;;3.03;;
4597;SDS011;62772;48.646;8.906;2022-08-25T13:40:31;4.00;;;2.90;;
4597;SDS011;62772;48.646;8.906;2022-08-25T13:45:39;4.47;;;3.00;;
4597;SDS011;62772;48.646;8.906;2022-08-25T13:50:43;5.80;;;2.83;;
4597;SDS011;62772;48.646;8.906;2022-08-25T13:55:47;5.10;;;3.20;;
4597;SDS011;62772;48.646;8.906;2022-08-25T14:00:59;3.88;;;3.15;;
4597;SDS011;62772;48.646;8.906;2022-08-25T14:06:09;4.53;;;3.08;;
4597;SDS011;62772;48.646;8.906;2022-08-25T14:11:26;4.13;;;3.30;;
4597;SDS011;62772;48.646;8.906;2022-08-25T14:16:30;3.38;;;2.60;;
4597;SDS011;62772;48.646;8.906;2022-08-25T14:21:37;4.07;;;3.10;;
4597;SDS011;62772;48.646;8.906;2022-08-25T14:26:38;6.20;;;3.15;;
4597;SDS011;62772;48.646;8.906;2022-08-25T14:31:39;4.20;;;2.80;;
4597;SDS011;62772;48.646;8.906;2022-08-25T14:36:45;5.53;;;2.70;;
4597;SDS011;62772;48.646;8.906;2022-08-25T14:41:47;4.50;;;2.97;;
4597;SDS011;62772;48.646;8.906;2022-08-25T14:46:51;4.45;;;3.00;;
4597;SDS011;62772;48.646;8.906;2022-08-25T14:51:56;3.85;;;3.08;;
4597;SDS011;62772;48.646;8.906;2022-08-25T14:57:03;3.58;;;2.40;;
4597;SDS011;62772;48.646;8.906;2022-08-25T15:02:04;11.07;;;3.05;;
4597;SDS011;62772;48.646;8.906;2022-08-25T15:07:10;4.45;;;2.58;;
4597;SDS011;62772;48.646;8.906;2022-08-25T15:12:32;3.42;;;2.65;;
4597;SDS011;62772;48.646;8.906;2022-08-25T15:17:33;4.25;;;2.75;;
4597;SDS011;62772;48.646;8.906;2022-08-25T15:22:36;3.67;;;2.80;;
4597;SDS011;62772;48.646;8.906;2022-08-25T15:27:37;5.03;;;3.13;;
4597;SDS011;62772;48.646;8.906;2022-08-25T15:32:37;6.03;;;2.75;;
4597;SDS011;62772;48.646;8.906;2022-08-25T15:37:40;3.53;;;2.83;;
4597;SDS011;62772;48.646;8.906;2022-08-25T15:42:41;3.72;;;2.97;;
4597;SDS011;62772;48.646;8.906;2022-08-25T15:47:42;3.80;;;2.70;;
4597;SDS011;62772;48.646;8.906;2022-08-25T15:52:45;3.42;;;2.70;;
4597;SDS011;62772;48.646;8.906;2022-08-25T15:57:46;4.15;;;2.58;;
4597;SDS011;62772;48.646;8.906;2022-08-25T16:02:47;5.55;;;2.80;;
4597;SDS011;62772;48.646;8.906;2022-08-25T16:07:50;4.72;;;2.85;;
4597;SDS011;62772;48.646;8.906;2022-08-25T16:12:50;6.05;;;2.80;;
4597;SDS011;62772;48.646;8.906;2022-08-25T16:17:51;3.72;;;2.75;;
4597;SDS011;62772;48.646;8.906;2022-08-25T16:22:54;4.43;;;2.75;;
4597;SDS011;62772;48.646;8.906;2022-08-25T16:27:55;3.53;;;2.42;;
4597;SDS011;62772;48.646;8.906;2022-08-25T16:32:56;4.03;;;2.63;;
4597;SDS011;62772;48.646;8.906;2022-08-25T16:37:59;6.38;;;3.08;;
4597;SDS011;62772;48.646;8.906;2022-08-25T16:43:01;4.30;;;2.67;;
4597;SDS011;62772;48.646;8.906;2022-08-25T16:48:02;4.15;;;2.47;;
4597;SDS011;62772;48.646;8.906;2022-08-25T16:53:06;4.05;;;2.90;;
4597;SDS011;62772;48.646;8.906;2022-08-25T16:58:25;6.78;;;3.47;;
4597;SDS011;62772;48.646;8.906;2022-08-25T17:03:26;5.07;;;3.65;;
4597;SDS011;62772;48.646;8.906;2022-08-25T17:08:29;4.40;;;3.40;;
4597;SDS011;62772;48.646;8.906;2022-08-25T17:13:31;4.50;;;3.00;;
4597;SDS011;62772;48.646;8.906;2022-08-25T17:18:33;5.30;;;3.08;;
4597;SDS011;62772;48.646;8.906;2022-08-25T17:23:37;5.65;;;3.45;;
4597;SDS011;62772;48.646;8.906;2022-08-25T17:28:41;4.18;;;3.10;;
4597;SDS011;62772;48.646;8.906;2022-08-25T17:33:42;6.15;;;3.17;;
4597;SDS011;62772;48.646;8.906;2022-08-25T17:38:45;3.72;;;2.80;;
4597;SDS011;62772;48.646;8.906;2022-08-25T17:43:46;4.85;;;3.25;;
4597;SDS011;62772;48.646;8.906;2022-08-25T17:48:47;4.68;;;3.40;;
4597;SDS011;62772;48.646;8.906;2022-08-25T17:53:50;5.25;;;3.22;;
4597;SDS011;62772;48.646;8.906;2022-08-25T17:58:52;10.38;;;3.45;;
4597;SDS011;62772;48.646;8.906;2022-08-25T18:03:54;4.15;;;3.03;;
4597;SDS011;62772;48.646;8.906;2022-08-25T18:08:59;4.43;;;3.40;;
4597;SDS011;62772;48.646;8.906;2022-08-25T18:14:00;5.80;;;3.75;;
4597;SDS011;62772;48.646;8.906;2022-08-25T18:19:01;4.60;;;3.22;;
4597;SDS011;62772;48.646;8.906;2022-08-25T18:24:05;4.95;;;3.20;;
4597;SDS011;62772;48.646;8.906;2022-08-25T18:29:07;4.88;;;3.20;;
4597;SDS011;62772;48.646;8.906;2022-08-25T18:34:11;5.50;;;3.55;;
4597;SDS011;62772;48.646;8.906;2022-08-25T18:39:14;7.72;;;3.75;;
4597;SDS011;62772;48.646;8.906;2022-08-25T18:44:33;5.63;;;3.55;;
4597;SDS011;62772;48.646;8.906;2022-08-25T18:49:35;5.95;;;3.75;;
4597;SDS011;62772;48.646;8.906;2022-08-25T18:54:38;4.78;;;3.45;;
4597;SDS011;62772;48.646;8.906;2022-08-25T18:59:39;5.95;;;3.80;;
4597;SDS011;62772;48.646;8.906;2022-08-25T19:04:40;6.75;;;3.72;;
4597;SDS011;62772;48.646;8.906;2022-08-25T19:09:43;5.80;;;3.80;;
4597;SDS011;62772;48.646;8.906;2022-08-25T19:14:45;5.05;;;3.50;;
4597;SDS011;62772;48.646;8.906;2022-08-25T19:19:45;5.35;;;3.63;;
4597;SDS011;62772;48.646;8.906;2022-08-25T19:24:49;6.10;;;3.53;;
4597;SDS011;62772;48.646;8.906;2022-08-25T19:29:50;5.35;;;3.90;;
4597;SDS011;62772;48.646;8.906;2022-08-25T19:34:51;8.43;;;3.85;;
4597;SDS011;62772;48.646;8.906;2022-08-25T19:39:56;6.60;;;4.47;;
4597;SDS011;62772;48.646;8.906;2022-08-25T19:44:57;5.60;;;3.80;;
4597;SDS011;62772;48.646;8.906;2022-08-25T19:49:58;7.15;;;3.80;;
4597;SDS011;62772;48.646;8.906;2022-08-25T19:55:02;6.20;;;4.22;;
4597;SDS011;62772;48.646;8.906;2022-08-25T20:00:04;7.72;;;4.50;;
4597;SDS011;62772;48.646;8.906;2022-08-25T20:05:12;7.70;;;4.40;;
4597;SDS011;62772;48.646;8.906;2022-08-25T20:10:16;7.50;;;3.97;;
4597;SDS011;62772;48.646;8.906;2022-08-25T20:15:19;6.10;;;4.00;;
4597;SDS011;62772;48.646;8.906;2022-08-25T20:20:20;7.20;;;4.77;;
4597;SDS011;62772;48.646;8.906;2022-08-25T20:25:24;6.77;;;4.27;;
4597;SDS011;62772;48.646;8.906;2022-08-25T20:30:26;5.87;;;4.13;;
4597;SDS011;62772;48.646;8.906;2022-08-25T20:35:28;6.97;;;3.93;;
4597;SDS011;62772;48.646;8.906;2022-08-25T20:40:31;6.50;;;4.33;;
4597;SDS011;62772;48.646;8.906;2022-08-25T20:45:32;14.13;;;4.60;;
4597;SDS011;62772;48.646;8.906;2022-08-25T20:50:33;5.70;;;4.03;;
4597;SDS011;62772;48.646;8.906;2022-08-25T20:55:41;7.10;;;4.47;;
4597;SDS011;62772;48.646;8.906;2022-08-25T21:00:42;10.50;;;5.03;;
4597;SDS011;62772;48.646;8.906;2022-08-25T21:05:44;6.00;;;4.70;;
4597;SDS011;62772;48.646;8.906;2022-08-25T21:10:47;8.43;;;4.70;;
4597;SDS011;62772;48.646;8.906;2022-08-25T21:15:48;9.60;;;4.73;;
4597;SDS011;62772;48.646;8.906;2022-08-25T21:20:49;8.13;;;5.00;;
4597;SDS011;62772;48.646;8.906;2022-08-25T21:25:52;6.90;;;4.77;;
4597;SDS011;62772;48.646;8.906;2022-08-25T21:30:52;7.40;;;4.70;;
4597;SDS011;62772;48.646;8.906;2022-08-25T21:35:53;7.37;;;4.40;;
4597;SDS011;62772;48.646;8.906;2022-08-25T21:40:56;6.53;;;4.67;;
4597;SDS011;62772;48.646;8.906;2022-08-25T21:45:57;8.43;;;4.70;;
4597;SDS011;62772;48.646;8.906;2022-08-25T21:51:02;9.07;;;5.00;;
4597;SDS011;62772;48.646;8.906;2022-08-25T21:56:07;7.70;;;4.83;;
4597;SDS011;62772;48.646;8.906;2022-08-25T22:01:10;6.57;;;4.80;;
4597;SDS011;62772;48.646;8.906;2022-08-25T22:06:13;10.57;;;6.03;;
4597;SDS011;62772;48.646;8.906;2022-08-25T22:11:17;8.13;;;4.97;;
4597;SDS011;62772;48.646;8.906;2022-08-25T22:16:17;10.23;;;4.90;;
4597;SDS011;62772;48.646;8.906;2022-08-25T22:21:19;7.27;;;5.00;;
4597;SDS011;62772;48.646;8.906;2022-08-25T22:26:29;8.03;;;5.20;;
4597;SDS011;62772;48.646;8.906;2022-08-25T22:31:32;8.67;;;5.13;;
4597;SDS011;62772;48.646;8.906;2022-08-25T22:36:34;9.20;;;4.83;;
4597;SDS011;62772;48.646;8.906;2022-08-25T22:41:39;7.13;;;5.07;;
4597;SDS011;62772;48.646;8.906;2022-08-25T22:46:40;9.87;;;4.80;;
4597;SDS011;62772;48.646;8.906;2022-08-25T22:51:41;7.77;;;5.20;;
4597;SDS011;62772;48.646;8.906;2022-08-25T22:56:44;9.13;;;5.47;;
4597;SDS011;62772;48.646;8.906;2022-08-25T23:01:45;7.60;;;5.80;;
4597;SDS011;62772;48.646;8.906;2022-08-25T23:06:45;7.63;;;5.33;;
4597;SDS011;62772;48.646;8.906;2022-08-25T23:11:49;8.67;;;5.90;;
4597;SDS011;62772;48.646;8.906;2022-08-25T23:16:50;12.30;;;5.50;;
4597;SDS011;62772;48.646;8.906;2022-08-25T23:21:50;9.67;;;5.93;;
4597;SDS011;62772;48.646;8.906;2022-08-25T23:27:12;8.27;;;5.70;;
4597;SDS011;62772;48.646;8.906;2022-08-25T23:32:16;7.63;;;5.67;;
4597;SDS011;62772;48.646;8.906;2022-08-25T23:37:17;8.83;;;5.13;;
4597;SDS011;62772;48.646;8.906;2022-08-25T23:42:20;9.90;;;6.10;;
4597;SDS011;62772;48.646;8.906;2022-08-25T23:47:21;8.77;;;6.00;;
4597;SDS011;62772;48.646;8.906;2022-08-25T23:52:22;8.13;;;5.50;;
4597;SDS011;62772;48.646;8.906;2022-08-25T23:57:25;7.80;;;5.80;;
